Oceanograf 2 — SPG2498 — position and weather

sailwx.info

Track history (hours):
 
Tides and Currents Weather Stations Pressure Air Temp Water Temp Dewpoint Dewpoint Depression Visibility Wind Speed Wind Dir Waves Ship Positions

Oceanographic research ship Oceanograf 2 (Poland)

Detailed information on ship capabilities available from University of Delaware's Ocean Information Center.

Last reported at 2019-Sep-21 12:47 UTC. Time now 2019-Sep-21 17:13 UTC.
Position N 53°36' E 014°35'.

Length 23 m; draft 1.9 m.

Type: Towing. MMSI: 261014410.

Date/timePositionNaut miles runAvg speedWind from/ knotsBaromVisibWave heightAir tempDewpointWater temp
2019-Sep-21 12:47N 53°36' E 014°35'0 0.0
2019-Sep-21 11:50N 53°36' E 014°35'0 0.0
2019-Sep-21 11:14N 53°36' E 014°35'0 0.0
2019-Sep-21 10:55N 53°36' E 014°35'0 0.0
2019-Sep-21 10:26N 53°36' E 014°35'0 0.0
2019-Sep-21 09:58N 53°36' E 014°35'0 0.0
2019-Sep-21 09:24N 53°36' E 014°35'0 0.0
2019-Sep-21 08:54N 53°36' E 014°35'0 0.0
2019-Sep-21 08:16N 53°36' E 014°35'0 0.0
2019-Sep-21 07:46N 53°36' E 014°35'0 0.0
2019-Sep-21 07:21N 53°36' E 014°35'0 0.0
2019-Sep-21 06:24N 53°36' E 014°35'0 0.0
2019-Sep-21 05:45N 53°36' E 014°35'2 7.9
2019-Sep-21 05:30N 53°38' E 014°34'1 0.0
2019-Sep-20 17:02N 53°39' E 014°33'011.2
2019-Sep-20 17:00N 53°38' E 014°34'2 2.0
2019-Sep-20 15:56N 53°36' E 014°35'0 0.0
2019-Sep-20 15:12N 53°36' E 014°35'0 0.0
2019-Sep-20 14:35N 53°36' E 014°35'0 0.0
2019-Sep-20 14:29N 53°36' E 014°35'0 0.0
2019-Sep-20 13:57N 53°36' E 014°35'3 0.4
2019-Sep-20 06:36N 53°39' E 014°33'110.7
2019-Sep-20 06:29N 53°38' E 014°35'2 2.6
2019-Sep-20 05:54N 53°36' E 014°35'2 4.2
2019-Sep-20 05:30N 53°38' E 014°34'1 0.1
2019-Sep-19 16:39N 53°39' E 014°33'210.5
2019-Sep-19 16:30N 53°37' E 014°35'1 1.6
2019-Sep-19 15:49N 53°36' E 014°35'0 0.0
2019-Sep-19 15:26N 53°36' E 014°35'0 0.0
2019-Sep-19 14:56N 53°36' E 014°35'0 0.0
2019-Sep-19 14:27N 53°36' E 014°35'0 0.0
2019-Sep-19 13:46N 53°36' E 014°35'0 0.0
2019-Sep-19 13:28N 53°36' E 014°35'0 0.0
2019-Sep-19 12:55N 53°36' E 014°35'0 0.0
2019-Sep-19 12:18N 53°36' E 014°35'0 0.0
2019-Sep-19 12:00N 53°36' E 014°35'0 0.0
2019-Sep-19 11:24N 53°36' E 014°35'0 0.0
2019-Sep-19 10:54N 53°36' E 014°35'0 0.0
2019-Sep-19 10:27N 53°36' E 014°35'0 0.0
2019-Sep-19 09:57N 53°36' E 014°35'0 0.0
2019-Sep-19 09:25N 53°36' E 014°35'0 0.0
2019-Sep-19 08:50N 53°36' E 014°35'0 0.0
2019-Sep-19 08:28N 53°36' E 014°35'0 0.0
2019-Sep-19 07:59N 53°36' E 014°35'0 0.0
2019-Sep-19 07:29N 53°36' E 014°35'0 0.0
2019-Sep-19 06:59N 53°36' E 014°35'1 1.8
2019-Sep-19 06:30N 53°37' E 014°35'3 6.3
2019-Sep-19 06:00N 53°40' E 014°31'4 1.3
2019-Sep-19 03:07N 53°36' E 014°35'0 0.0
2019-Sep-19 02:56N 53°36' E 014°35'0 0.0
2019-Sep-19 02:30N 53°36' E 014°35'0 0.0
2019-Sep-19 01:56N 53°36' E 014°35'0 0.0
2019-Sep-19 01:29N 53°36' E 014°35'0 0.0
2019-Sep-19 00:58N 53°36' E 014°35'0 0.0
2019-Sep-19 00:26N 53°36' E 014°35'0 0.0
2019-Sep-18 23:58N 53°36' E 014°35'0 0.0
2019-Sep-18 23:22N 53°36' E 014°35'0 0.0
2019-Sep-18 22:55N 53°36' E 014°35'0 0.0
2019-Sep-18 22:29N 53°36' E 014°35'0 0.0
2019-Sep-18 22:00N 53°36' E 014°35'0 0.0
2019-Sep-18 21:18N 53°36' E 014°35'0 0.0
2019-Sep-18 20:59N 53°36' E 014°35'0 0.0
2019-Sep-18 20:28N 53°36' E 014°35'1 0.5
2019-Sep-18 18:30N 53°37' E 014°35'3 0.2
2019-Sep-18 08:24N 53°39' E 014°32'3 8.4
2019-Sep-18 08:01N 53°36' E 014°35'0 0.1
2019-Sep-18 07:30N 53°36' E 014°35'0 0.0
2019-Sep-18 06:59N 53°36' E 014°35'0 0.0
2019-Sep-18 06:25N 53°36' E 014°35'1 2.4
2019-Sep-18 06:01N 53°37' E 014°35'2 4.6
2019-Sep-18 05:28N 53°39' E 014°32'3 5.8
2019-Sep-18 04:55N 53°36' E 014°35'0 0.0
2019-Sep-18 04:24N 53°36' E 014°35'0 0.0
2019-Sep-18 03:47N 53°36' E 014°35'0 0.0
2019-Sep-18 03:30N 53°36' E 014°35'0 0.0
2019-Sep-18 02:57N 53°36' E 014°35'0 0.0
2019-Sep-18 02:29N 53°36' E 014°35'0 0.0
2019-Sep-18 01:56N 53°36' E 014°35'0 0.0
2019-Sep-18 01:28N 53°36' E 014°35'0 0.0
2019-Sep-18 00:48N 53°36' E 014°35'0 0.0
2019-Sep-18 00:26N 53°36' E 014°35'0 0.0
2019-Sep-17 23:59N 53°36' E 014°35'0 0.0
2019-Sep-17 23:31N 53°36' E 014°35'0 0.0
2019-Sep-17 22:59N 53°36' E 014°35'0 0.0
2019-Sep-17 22:25N 53°36' E 014°35'0 0.0
2019-Sep-17 21:50N 53°36' E 014°35'0 0.0
2019-Sep-17 21:28N 53°36' E 014°35'0 0.0
2019-Sep-17 20:58N 53°36' E 014°35'0 0.0
2019-Sep-17 20:25N 53°36' E 014°35'0 0.0
2019-Sep-17 20:01N 53°36' E 014°35'0 0.0
2019-Sep-17 19:27N 53°36' E 014°35'0 0.0
2019-Sep-17 18:58N 53°36' E 014°35'0 0.0
2019-Sep-17 18:28N 53°36' E 014°35'0 0.0
2019-Sep-17 17:58N 53°36' E 014°35'0 0.0
2019-Sep-17 17:26N 53°36' E 014°35'0 0.0
2019-Sep-17 16:53N 53°36' E 014°35'0 0.0
2019-Sep-17 15:28N 53°36' E 014°35'4 1.8
2019-Sep-17 13:25N 53°40' E 014°31'4 4.1
2019-Sep-17 12:30N 53°36' E 014°35'0 0.0
2019-Sep-17 11:58N 53°36' E 014°35'0 0.0
2019-Sep-17 11:23N 53°36' E 014°35'0 0.0
2019-Sep-17 10:46N 53°36' E 014°35'0 0.0
2019-Sep-17 10:25N 53°36' E 014°35'0 0.0
2019-Sep-17 09:58N 53°36' E 014°35'0 0.0
2019-Sep-17 09:23N 53°36' E 014°35'0 0.0
2019-Sep-17 08:58N 53°36' E 014°35'0 0.0
2019-Sep-17 08:27N 53°36' E 014°35'0 0.0
2019-Sep-17 08:00N 53°36' E 014°35'0 0.0
2019-Sep-17 07:25N 53°36' E 014°35'0 0.0
2019-Sep-17 06:58N 53°36' E 014°35'0 0.0
2019-Sep-17 06:28N 53°36' E 014°35'0 0.8
2019-Sep-17 06:00N 53°37' E 014°35'4 5.3
2019-Sep-17 05:18N 53°40' E 014°31'3 7.7
2019-Sep-17 04:57N 53°38' E 014°35'1 2.9
2019-Sep-17 04:28N 53°36' E 014°35'0 0.0
2019-Sep-17 03:59N 53°36' E 014°35'0 0.0
2019-Sep-17 03:27N 53°36' E 014°35'0 0.0
2019-Sep-17 02:57N 53°36' E 014°35'0 0.0
2019-Sep-17 02:28N 53°36' E 014°35'0 0.0
2019-Sep-17 01:54N 53°36' E 014°35'0 0.0
2019-Sep-17 01:28N 53°36' E 014°35'0 0.0
2019-Sep-17 00:58N 53°36' E 014°35'0 0.0
2019-Sep-17 00:29N 53°36' E 014°35'0 0.0
2019-Sep-16 23:58N 53°36' E 014°35'0 0.0
2019-Sep-16 23:27N 53°36' E 014°35'0 0.0
2019-Sep-16 22:58N 53°36' E 014°35'0 0.0
2019-Sep-16 22:28N 53°36' E 014°35'0 0.0
2019-Sep-16 21:52N 53°36' E 014°35'0 0.0
2019-Sep-16 21:23N 53°36' E 014°35'0 0.0
2019-Sep-16 20:53N 53°36' E 014°35'0 0.0
2019-Sep-16 20:30N 53°36' E 014°35'0 0.0
2019-Sep-16 20:00N 53°36' E 014°35'1 2.3
2019-Sep-16 19:31N 53°38' E 014°35'2 0.6
2019-Sep-16 16:42N 53°39' E 014°33'210.8
2019-Sep-16 16:30N 53°37' E 014°35'1 1.0
2019-Sep-16 15:47N 53°36' E 014°35'0 0.0
2019-Sep-16 15:29N 53°36' E 014°35'0 0.0
2019-Sep-16 14:33N 53°36' E 014°35'0 0.0
2019-Sep-16 11:51N 53°36' E 014°35'0 0.0
2019-Sep-16 11:19N 53°36' E 014°35'0 0.0
2019-Sep-16 10:53N 53°36' E 014°35'0 0.0
2019-Sep-16 10:29N 53°36' E 014°35'0 0.0
2019-Sep-16 09:39N 53°36' E 014°35'0 0.0
2019-Sep-16 09:30N 53°36' E 014°35'0 0.0
2019-Sep-16 08:48N 53°36' E 014°35'2 7.3
2019-Sep-16 08:30N 53°38' E 014°34'1 1.2
2019-Sep-16 07:26N 53°39' E 014°32'3 7.7
2019-Sep-16 07:00N 53°36' E 014°35'0 0.2
2019-Sep-16 05:44N 53°36' E 014°35'0 0.0
2019-Sep-16 05:20N 53°36' E 014°35'0 0.0
2019-Sep-16 04:55N 53°36' E 014°35'0 0.0
2019-Sep-16 04:25N 53°36' E 014°35'0 0.0
2019-Sep-16 03:58N 53°36' E 014°35'0 0.0
2019-Sep-16 03:29N 53°36' E 014°35'0 0.0
2019-Sep-16 02:51N 53°36' E 014°35'0 0.0
2019-Sep-16 02:26N 53°36' E 014°35'0 0.0
2019-Sep-16 01:59N 53°36' E 014°35'0 0.0
2019-Sep-16 01:26N 53°36' E 014°35'0 0.0
2019-Sep-16 00:54N 53°36' E 014°35'0 0.0
2019-Sep-16 00:29N 53°36' E 014°35'0 0.0
2019-Sep-16 00:00N 53°36' E 014°35'0 0.0
2019-Sep-15 23:28N 53°36' E 014°35'0 0.0
2019-Sep-15 22:55N 53°36' E 014°35'0 0.0
2019-Sep-15 22:17N 53°36' E 014°35'0 0.0
2019-Sep-15 21:55N 53°36' E 014°35'0 0.0
2019-Sep-15 21:28N 53°36' E 014°35'0 0.0
2019-Sep-15 20:43N 53°36' E 014°35'0 0.0
2019-Sep-15 20:17N 53°36' E 014°35'0 0.0
2019-Sep-15 19:51N 53°36' E 014°35'0 0.0
2019-Sep-15 18:10N 53°36' E 014°35'0 0.0
2019-Sep-15 17:50N 53°36' E 014°35'1 3.7
2019-Sep-15 17:30N 53°38' E 014°35'2 0.2
2019-Sep-15 10:31N 53°39' E 014°33'010.5
2019-Sep-15 10:30N 53°39' E 014°33'3 4.8
2019-Sep-15 09:58N 53°36' E 014°35'0 0.0
2019-Sep-15 09:30N 53°36' E 014°35'0 0.0
2019-Sep-15 08:58N 53°36' E 014°35'0 0.0
2019-Sep-15 08:28N 53°36' E 014°35'0 0.0
2019-Sep-15 07:58N 53°36' E 014°35'0 0.0
2019-Sep-15 06:20N 53°36' E 014°35'3 4.9
2019-Sep-15 05:42N 53°39' E 014°33'0 1.1
2019-Sep-15 05:15N 53°39' E 014°33'210.0
2019-Sep-15 05:00N 53°37' E 014°35'0 0.7
2019-Sep-15 04:29N 53°36' E 014°35'0 0.0
2019-Sep-15 03:59N 53°36' E 014°35'0 0.0
2019-Sep-15 03:30N 53°36' E 014°35'0 0.0
2019-Sep-15 02:58N 53°36' E 014°35'0 0.0
2019-Sep-15 02:27N 53°36' E 014°35'0 0.0
2019-Sep-15 01:59N 53°36' E 014°35'0 0.0
2019-Sep-15 01:23N 53°36' E 014°35'0 0.0
2019-Sep-15 01:00N 53°36' E 014°35'0 0.0
2019-Sep-15 00:23N 53°36' E 014°35'0 0.0
2019-Sep-14 23:59N 53°36' E 014°35'0 0.0
2019-Sep-14 23:29N 53°36' E 014°35'0 0.0
2019-Sep-14 22:59N 53°36' E 014°35'0 0.0
2019-Sep-14 22:26N 53°36' E 014°35'0 0.0
2019-Sep-14 21:46N 53°36' E 014°35'0 0.0
2019-Sep-14 21:22N 53°36' E 014°35'0 0.0
2019-Sep-14 20:35N 53°36' E 014°35'0 0.0
2019-Sep-14 20:21N 53°36' E 014°35'0 0.0
2019-Sep-14 19:15N 53°36' E 014°35'0 0.0
2019-Sep-14 18:58N 53°36' E 014°35'0 0.0
2019-Sep-14 18:22N 53°36' E 014°35'2 6.3
2019-Sep-14 17:59N 53°39' E 014°34'0 0.1
2019-Sep-14 16:45N 53°39' E 014°33'310.6
2019-Sep-14 16:31N 53°36' E 014°35'0 0.4
2019-Sep-14 15:52N 53°36' E 014°35'0 0.0
2019-Sep-14 15:17N 53°36' E 014°35'0 0.0
2019-Sep-14 14:43N 53°36' E 014°35'0 0.0
2019-Sep-14 13:51N 53°36' E 014°35'0 0.0
2019-Sep-14 13:30N 53°36' E 014°35'0 0.0
2019-Sep-14 12:59N 53°36' E 014°35'0 0.0
2019-Sep-14 12:29N 53°36' E 014°35'4 6.2
2019-Sep-14 11:52N 53°40' E 014°31'1 1.8
2019-Sep-14 11:21N 53°39' E 014°33'3 8.8
2019-Sep-14 11:00N 53°36' E 014°35'0 0.0
2019-Sep-14 10:30N 53°36' E 014°35'0 0.0
2019-Sep-14 09:58N 53°36' E 014°35'0 0.0
2019-Sep-14 09:28N 53°36' E 014°35'0 0.7
2019-Sep-14 09:00N 53°37' E 014°35'2 3.8
2019-Sep-14 08:30N 53°38' E 014°34'  
Track history (hours):
 
Tides and Currents Weather Stations Pressure Air Temp Water Temp Dewpoint Dewpoint Depression Visibility Wind Speed Wind Dir Waves Ship Positions

Oceanographic research ship Oceanograf 2 (Poland)

Detailed information on ship capabilities available from University of Delaware's Ocean Information Center.

Last reported at 2019-Sep-21 12:47 UTC. Time now 2019-Sep-21 17:13 UTC.
Position N 53°36' E 014°35'.

Length 23 m; draft 1.9 m.

Type: Towing. MMSI: 261014410.

Date/timePositionNaut miles runAvg speedWind from/ knotsBaromVisibWave heightAir tempDewpointWater temp
2019-Sep-21 12:47N 53°36' E 014°35'0 0.0
2019-Sep-21 11:50N 53°36' E 014°35'0 0.0
2019-Sep-21 11:14N 53°36' E 014°35'0 0.0
2019-Sep-21 10:55N 53°36' E 014°35'0 0.0
2019-Sep-21 10:26N 53°36' E 014°35'0 0.0
2019-Sep-21 09:58N 53°36' E 014°35'0 0.0
2019-Sep-21 09:24N 53°36' E 014°35'0 0.0
2019-Sep-21 08:54N 53°36' E 014°35'0 0.0
2019-Sep-21 08:16N 53°36' E 014°35'0 0.0
2019-Sep-21 07:46N 53°36' E 014°35'0 0.0
2019-Sep-21 07:21N 53°36' E 014°35'0 0.0
2019-Sep-21 06:24N 53°36' E 014°35'0 0.0
2019-Sep-21 05:45N 53°36' E 014°35'2 7.9
2019-Sep-21 05:30N 53°38' E 014°34'1 0.0
2019-Sep-20 17:02N 53°39' E 014°33'011.2
2019-Sep-20 17:00N 53°38' E 014°34'2 2.0
2019-Sep-20 15:56N 53°36' E 014°35'0 0.0
2019-Sep-20 15:12N 53°36' E 014°35'0 0.0
2019-Sep-20 14:35N 53°36' E 014°35'0 0.0
2019-Sep-20 14:29N 53°36' E 014°35'0 0.0
2019-Sep-20 13:57N 53°36' E 014°35'3 0.4
2019-Sep-20 06:36N 53°39' E 014°33'110.7
2019-Sep-20 06:29N 53°38' E 014°35'2 2.6
2019-Sep-20 05:54N 53°36' E 014°35'2 4.2
2019-Sep-20 05:30N 53°38' E 014°34'1 0.1
2019-Sep-19 16:39N 53°39' E 014°33'210.5
2019-Sep-19 16:30N 53°37' E 014°35'1 1.6
2019-Sep-19 15:49N 53°36' E 014°35'0 0.0
2019-Sep-19 15:26N 53°36' E 014°35'0 0.0
2019-Sep-19 14:56N 53°36' E 014°35'0 0.0
2019-Sep-19 14:27N 53°36' E 014°35'0 0.0
2019-Sep-19 13:46N 53°36' E 014°35'0 0.0
2019-Sep-19 13:28N 53°36' E 014°35'0 0.0
2019-Sep-19 12:55N 53°36' E 014°35'0 0.0
2019-Sep-19 12:18N 53°36' E 014°35'0 0.0
2019-Sep-19 12:00N 53°36' E 014°35'0 0.0
2019-Sep-19 11:24N 53°36' E 014°35'0 0.0
2019-Sep-19 10:54N 53°36' E 014°35'0 0.0
2019-Sep-19 10:27N 53°36' E 014°35'0 0.0
2019-Sep-19 09:57N 53°36' E 014°35'0 0.0
2019-Sep-19 09:25N 53°36' E 014°35'0 0.0
2019-Sep-19 08:50N 53°36' E 014°35'0 0.0
2019-Sep-19 08:28N 53°36' E 014°35'0 0.0
2019-Sep-19 07:59N 53°36' E 014°35'0 0.0
2019-Sep-19 07:29N 53°36' E 014°35'0 0.0
2019-Sep-19 06:59N 53°36' E 014°35'1 1.8
2019-Sep-19 06:30N 53°37' E 014°35'3 6.3
2019-Sep-19 06:00N 53°40' E 014°31'4 1.3
2019-Sep-19 03:07N 53°36' E 014°35'0 0.0
2019-Sep-19 02:56N 53°36' E 014°35'0 0.0
2019-Sep-19 02:30N 53°36' E 014°35'0 0.0
2019-Sep-19 01:56N 53°36' E 014°35'0 0.0
2019-Sep-19 01:29N 53°36' E 014°35'0 0.0
2019-Sep-19 00:58N 53°36' E 014°35'0 0.0
2019-Sep-19 00:26N 53°36' E 014°35'0 0.0
2019-Sep-18 23:58N 53°36' E 014°35'0 0.0
2019-Sep-18 23:22N 53°36' E 014°35'0 0.0
2019-Sep-18 22:55N 53°36' E 014°35'0 0.0
2019-Sep-18 22:29N 53°36' E 014°35'0 0.0
2019-Sep-18 22:00N 53°36' E 014°35'0 0.0
2019-Sep-18 21:18N 53°36' E 014°35'0 0.0
2019-Sep-18 20:59N 53°36' E 014°35'0 0.0
2019-Sep-18 20:28N 53°36' E 014°35'1 0.5
2019-Sep-18 18:30N 53°37' E 014°35'3 0.2
2019-Sep-18 08:24N 53°39' E 014°32'3 8.4
2019-Sep-18 08:01N 53°36' E 014°35'0 0.1
2019-Sep-18 07:30N 53°36' E 014°35'0 0.0
2019-Sep-18 06:59N 53°36' E 014°35'0 0.0
2019-Sep-18 06:25N 53°36' E 014°35'1 2.4
2019-Sep-18 06:01N 53°37' E 014°35'2 4.6
2019-Sep-18 05:28N 53°39' E 014°32'3 5.8
2019-Sep-18 04:55N 53°36' E 014°35'0 0.0
2019-Sep-18 04:24N 53°36' E 014°35'0 0.0
2019-Sep-18 03:47N 53°36' E 014°35'0 0.0
2019-Sep-18 03:30N 53°36' E 014°35'0 0.0
2019-Sep-18 02:57N 53°36' E 014°35'0 0.0
2019-Sep-18 02:29N 53°36' E 014°35'0 0.0
2019-Sep-18 01:56N 53°36' E 014°35'0 0.0
2019-Sep-18 01:28N 53°36' E 014°35'0 0.0
2019-Sep-18 00:48N 53°36' E 014°35'0 0.0
2019-Sep-18 00:26N 53°36' E 014°35'0 0.0
2019-Sep-17 23:59N 53°36' E 014°35'0 0.0
2019-Sep-17 23:31N 53°36' E 014°35'0 0.0
2019-Sep-17 22:59N 53°36' E 014°35'0 0.0
2019-Sep-17 22:25N 53°36' E 014°35'0 0.0
2019-Sep-17 21:50N 53°36' E 014°35'0 0.0
2019-Sep-17 21:28N 53°36' E 014°35'0 0.0
2019-Sep-17 20:58N 53°36' E 014°35'0 0.0
2019-Sep-17 20:25N 53°36' E 014°35'0 0.0
2019-Sep-17 20:01N 53°36' E 014°35'0 0.0
2019-Sep-17 19:27N 53°36' E 014°35'0 0.0
2019-Sep-17 18:58N 53°36' E 014°35'0 0.0
2019-Sep-17 18:28N 53°36' E 014°35'0 0.0
2019-Sep-17 17:58N 53°36' E 014°35'0 0.0
2019-Sep-17 17:26N 53°36' E 014°35'0 0.0
2019-Sep-17 16:53N 53°36' E 014°35'0 0.0
2019-Sep-17 15:28N 53°36' E 014°35'4 1.8
2019-Sep-17 13:25N 53°40' E 014°31'4 4.1
2019-Sep-17 12:30N 53°36' E 014°35'0 0.0
2019-Sep-17 11:58N 53°36' E 014°35'0 0.0
2019-Sep-17 11:23N 53°36' E 014°35'0 0.0
2019-Sep-17 10:46N 53°36' E 014°35'0 0.0
2019-Sep-17 10:25N 53°36' E 014°35'0 0.0
2019-Sep-17 09:58N 53°36' E 014°35'0 0.0
2019-Sep-17 09:23N 53°36' E 014°35'0 0.0
2019-Sep-17 08:58N 53°36' E 014°35'0 0.0
2019-Sep-17 08:27N 53°36' E 014°35'0 0.0
2019-Sep-17 08:00N 53°36' E 014°35'0 0.0
2019-Sep-17 07:25N 53°36' E 014°35'0 0.0
2019-Sep-17 06:58N 53°36' E 014°35'0 0.0
2019-Sep-17 06:28N 53°36' E 014°35'0 0.8
2019-Sep-17 06:00N 53°37' E 014°35'4 5.3
2019-Sep-17 05:18N 53°40' E 014°31'3 7.7
2019-Sep-17 04:57N 53°38' E 014°35'1 2.9
2019-Sep-17 04:28N 53°36' E 014°35'0 0.0
2019-Sep-17 03:59N 53°36' E 014°35'0 0.0
2019-Sep-17 03:27N 53°36' E 014°35'0 0.0
2019-Sep-17 02:57N 53°36' E 014°35'0 0.0
2019-Sep-17 02:28N 53°36' E 014°35'0 0.0
2019-Sep-17 01:54N 53°36' E 014°35'0 0.0
2019-Sep-17 01:28N 53°36' E 014°35'0 0.0
2019-Sep-17 00:58N 53°36' E 014°35'0 0.0
2019-Sep-17 00:29N 53°36' E 014°35'0 0.0
2019-Sep-16 23:58N 53°36' E 014°35'0 0.0
2019-Sep-16 23:27N 53°36' E 014°35'0 0.0
2019-Sep-16 22:58N 53°36' E 014°35'0 0.0
2019-Sep-16 22:28N 53°36' E 014°35'0 0.0
2019-Sep-16 21:52N 53°36' E 014°35'0 0.0
2019-Sep-16 21:23N 53°36' E 014°35'0 0.0
2019-Sep-16 20:53N 53°36' E 014°35'0 0.0
2019-Sep-16 20:30N 53°36' E 014°35'0 0.0
2019-Sep-16 20:00N 53°36' E 014°35'1 2.3
2019-Sep-16 19:31N 53°38' E 014°35'2 0.6
2019-Sep-16 16:42N 53°39' E 014°33'210.8
2019-Sep-16 16:30N 53°37' E 014°35'1 1.0
2019-Sep-16 15:47N 53°36' E 014°35'0 0.0
2019-Sep-16 15:29N 53°36' E 014°35'0 0.0
2019-Sep-16 14:33N 53°36' E 014°35'0 0.0
2019-Sep-16 11:51N 53°36' E 014°35'0 0.0
2019-Sep-16 11:19N 53°36' E 014°35'0 0.0
2019-Sep-16 10:53N 53°36' E 014°35'0 0.0
2019-Sep-16 10:29N 53°36' E 014°35'0 0.0
2019-Sep-16 09:39N 53°36' E 014°35'0 0.0
2019-Sep-16 09:30N 53°36' E 014°35'0 0.0
2019-Sep-16 08:48N 53°36' E 014°35'2 7.3
2019-Sep-16 08:30N 53°38' E 014°34'1 1.2
2019-Sep-16 07:26N 53°39' E 014°32'3 7.7
2019-Sep-16 07:00N 53°36' E 014°35'0 0.2
2019-Sep-16 05:44N 53°36' E 014°35'0 0.0
2019-Sep-16 05:20N 53°36' E 014°35'0 0.0
2019-Sep-16 04:55N 53°36' E 014°35'0 0.0
2019-Sep-16 04:25N 53°36' E 014°35'0 0.0
2019-Sep-16 03:58N 53°36' E 014°35'0 0.0
2019-Sep-16 03:29N 53°36' E 014°35'0 0.0
2019-Sep-16 02:51N 53°36' E 014°35'0 0.0
2019-Sep-16 02:26N 53°36' E 014°35'0 0.0
2019-Sep-16 01:59N 53°36' E 014°35'0 0.0
2019-Sep-16 01:26N 53°36' E 014°35'0 0.0
2019-Sep-16 00:54N 53°36' E 014°35'0 0.0
2019-Sep-16 00:29N 53°36' E 014°35'0 0.0
2019-Sep-16 00:00N 53°36' E 014°35'0 0.0
2019-Sep-15 23:28N 53°36' E 014°35'0 0.0
2019-Sep-15 22:55N 53°36' E 014°35'0 0.0
2019-Sep-15 22:17N 53°36' E 014°35'0 0.0
2019-Sep-15 21:55N 53°36' E 014°35'0 0.0
2019-Sep-15 21:28N 53°36' E 014°35'0 0.0
2019-Sep-15 20:43N 53°36' E 014°35'0 0.0
2019-Sep-15 20:17N 53°36' E 014°35'0 0.0
2019-Sep-15 19:51N 53°36' E 014°35'0 0.0
2019-Sep-15 18:10N 53°36' E 014°35'0 0.0
2019-Sep-15 17:50N 53°36' E 014°35'1 3.7
2019-Sep-15 17:30N 53°38' E 014°35'2 0.2
2019-Sep-15 10:31N 53°39' E 014°33'010.5
2019-Sep-15 10:30N 53°39' E 014°33'3 4.8
2019-Sep-15 09:58N 53°36' E 014°35'0 0.0
2019-Sep-15 09:30N 53°36' E 014°35'0 0.0
2019-Sep-15 08:58N 53°36' E 014°35'0 0.0
2019-Sep-15 08:28N 53°36' E 014°35'0 0.0
2019-Sep-15 07:58N 53°36' E 014°35'0 0.0
2019-Sep-15 06:20N 53°36' E 014°35'3 4.9
2019-Sep-15 05:42N 53°39' E 014°33'0 1.1
2019-Sep-15 05:15N 53°39' E 014°33'210.0
2019-Sep-15 05:00N 53°37' E 014°35'0 0.7
2019-Sep-15 04:29N 53°36' E 014°35'0 0.0
2019-Sep-15 03:59N 53°36' E 014°35'0 0.0
2019-Sep-15 03:30N 53°36' E 014°35'0 0.0
2019-Sep-15 02:58N 53°36' E 014°35'0 0.0
2019-Sep-15 02:27N 53°36' E 014°35'0 0.0
2019-Sep-15 01:59N 53°36' E 014°35'0 0.0
2019-Sep-15 01:23N 53°36' E 014°35'0 0.0
2019-Sep-15 01:00N 53°36' E 014°35'0 0.0
2019-Sep-15 00:23N 53°36' E 014°35'0 0.0
2019-Sep-14 23:59N 53°36' E 014°35'0 0.0
2019-Sep-14 23:29N 53°36' E 014°35'0 0.0
2019-Sep-14 22:59N 53°36' E 014°35'0 0.0
2019-Sep-14 22:26N 53°36' E 014°35'0 0.0
2019-Sep-14 21:46N 53°36' E 014°35'0 0.0
2019-Sep-14 21:22N 53°36' E 014°35'0 0.0
2019-Sep-14 20:35N 53°36' E 014°35'0 0.0
2019-Sep-14 20:21N 53°36' E 014°35'0 0.0
2019-Sep-14 19:15N 53°36' E 014°35'0 0.0
2019-Sep-14 18:58N 53°36' E 014°35'0 0.0
2019-Sep-14 18:22N 53°36' E 014°35'2 6.3
2019-Sep-14 17:59N 53°39' E 014°34'0 0.1
2019-Sep-14 16:45N 53°39' E 014°33'310.6
2019-Sep-14 16:31N 53°36' E 014°35'0 0.4
2019-Sep-14 15:52N 53°36' E 014°35'0 0.0
2019-Sep-14 15:17N 53°36' E 014°35'0 0.0
2019-Sep-14 14:43N 53°36' E 014°35'0 0.0
2019-Sep-14 13:51N 53°36' E 014°35'0 0.0
2019-Sep-14 13:30N 53°36' E 014°35'0 0.0
2019-Sep-14 12:59N 53°36' E 014°35'0 0.0
2019-Sep-14 12:29N 53°36' E 014°35'4 6.2
2019-Sep-14 11:52N 53°40' E 014°31'1 1.8
2019-Sep-14 11:21N 53°39' E 014°33'3 8.8
2019-Sep-14 11:00N 53°36' E 014°35'0 0.0
2019-Sep-14 10:30N 53°36' E 014°35'0 0.0
2019-Sep-14 09:58N 53°36' E 014°35'0 0.0
2019-Sep-14 09:28N 53°36' E 014°35'0 0.7
2019-Sep-14 09:00N 53°37' E 014°35'2 3.8
2019-Sep-14 08:30N 53°38' E 014°34'  

Dump ship's entire track history